createdAt,value
2018-06-15T00:02:32.837Z,21.20
2018-06-15T00:05:06.132Z,21.20
2018-06-15T00:10:19.895Z,21.10
2018-06-15T00:15:32.528Z,21.10
2018-06-15T00:20:47.832Z,21.10
2018-06-15T00:31:22.623Z,21.10
2018-06-15T00:39:18.789Z,20.90
2018-06-15T00:47:11.238Z,20.90
2018-06-15T00:49:51.950Z,20.80
2018-06-15T00:52:26.372Z,20.80
2018-06-15T00:55:07.341Z,20.70
2018-06-15T01:00:28.987Z,20.70
2018-06-15T01:03:10.073Z,20.70
2018-06-15T01:05:57.201Z,20.60
2018-06-15T01:08:43.249Z,20.70
2018-06-15T01:11:24.668Z,20.70
2018-06-15T01:16:51.206Z,20.70
2018-06-15T01:19:28.315Z,20.70
2018-06-15T01:24:35.625Z,20.60
2018-06-15T01:32:24.428Z,20.60
2018-06-15T01:37:39.618Z,20.60
2018-06-15T01:40:22.028Z,20.60
2018-06-15T01:42:57.065Z,20.50
2018-06-15T01:45:43.058Z,20.50
2018-06-15T01:50:56.618Z,20.50
2018-06-15T01:56:04.958Z,20.50
2018-06-15T02:01:23.343Z,20.50
2018-06-15T02:03:59.487Z,20.50
2018-06-15T02:11:38.966Z,20.40
2018-06-15T02:16:43.812Z,20.30
2018-06-15T02:22:05.878Z,20.40
2018-06-15T02:35:05.252Z,20.40
2018-06-15T02:37:37.308Z,20.30
2018-06-15T02:45:26.069Z,20.30
2018-06-15T02:50:40.383Z,20.30
2018-06-15T02:53:21.168Z,20.30
2018-06-15T02:58:32.061Z,20.20
2018-06-15T03:03:47.767Z,20.20
2018-06-15T03:09:11.051Z,20.10
2018-06-15T03:11:54.587Z,20.10
2018-06-15T03:14:33.404Z,20.00
2018-06-15T03:17:15.000Z,20.00
2018-06-15T03:19:47.373Z,20.00
2018-06-15T03:30:06.195Z,19.90
2018-06-15T03:35:22.211Z,19.90
2018-06-15T03:43:09.363Z,19.90
2018-06-15T03:45:55.978Z,19.90
2018-06-15T03:48:33.056Z,20.00
2018-06-15T03:51:09.834Z,20.00
2018-06-15T03:58:58.228Z,20.00
2018-06-15T04:04:04.306Z,20.00
2018-06-15T04:06:41.501Z,20.00
2018-06-15T04:09:18.576Z,20.00
2018-06-15T04:22:28.716Z,19.90
2018-06-15T04:38:14.917Z,20.00
2018-06-15T04:43:23.141Z,20.00
2018-06-15T04:46:08.432Z,20.10
2018-06-15T04:48:46.425Z,20.10
2018-06-15T04:51:23.414Z,20.10
2018-06-15T04:54:07.762Z,20.00
2018-06-15T04:56:39.933Z,20.10
2018-06-15T05:01:53.906Z,20.10
2018-06-15T05:07:05.406Z,20.10
2018-06-15T05:09:38.496Z,20.10
2018-06-15T05:12:23.986Z,20.10
2018-06-15T05:20:17.614Z,20.20
2018-06-15T05:22:50.067Z,20.20
2018-06-15T05:30:58.480Z,20.20
2018-06-15T05:33:41.455Z,20.20
2018-06-15T05:36:16.899Z,20.20
2018-06-15T05:38:55.487Z,20.20
2018-06-15T05:41:30.656Z,20.30
2018-06-15T05:51:45.497Z,20.30
2018-06-15T05:54:33.504Z,20.30
2018-06-15T05:59:51.277Z,20.40
2018-06-15T06:02:23.148Z,20.40
2018-06-15T06:07:31.378Z,20.50
2018-06-15T06:10:09.520Z,20.50
2018-06-15T06:18:01.145Z,20.50
2018-06-15T06:26:05.537Z,20.60
2018-06-15T06:28:40.340Z,20.70
2018-06-15T06:31:20.299Z,20.70
2018-06-15T06:33:53.390Z,20.70
2018-06-15T06:36:25.964Z,20.80
2018-06-15T06:44:16.918Z,20.90
2018-06-15T06:49:32.422Z,20.90
2018-06-15T06:52:11.638Z,21.00
2018-06-15T07:02:40.713Z,21.00
2018-06-15T07:07:56.005Z,21.10
2018-06-15T07:13:04.031Z,21.20
2018-06-15T07:23:16.089Z,21.50
2018-06-15T07:28:34.458Z,21.70
2018-06-15T07:33:43.611Z,21.70
2018-06-15T07:36:20.287Z,21.70
2018-06-15T07:41:37.945Z,21.70
2018-06-15T07:47:04.090Z,21.70
2018-06-15T07:52:20.827Z,21.70
2018-06-15T07:57:46.935Z,21.70
2018-06-15T08:00:26.617Z,21.80
2018-06-15T08:03:00.834Z,21.80
2018-06-15T08:10:54.651Z,21.90
2018-06-15T08:13:32.356Z,21.90
2018-06-15T08:16:12.512Z,22.00
2018-06-15T08:21:36.708Z,22.00
2018-06-15T08:29:30.728Z,22.10
2018-06-15T08:34:37.437Z,22.20
2018-06-15T08:39:58.682Z,22.30
2018-06-15T08:42:34.014Z,22.30
2018-06-15T08:45:12.117Z,22.40
2018-06-15T08:55:53.361Z,22.60
2018-06-15T09:06:12.385Z,22.70
2018-06-15T09:09:00.534Z,22.80
2018-06-15T09:11:38.534Z,22.80
2018-06-15T09:14:25.058Z,22.90
2018-06-15T09:19:41.723Z,22.90
2018-06-15T09:22:21.416Z,23.00
2018-06-15T09:24:54.821Z,23.00
2018-06-15T09:30:14.421Z,23.20
2018-06-15T09:35:26.234Z,23.20
2018-06-15T09:38:10.745Z,23.20
2018-06-15T09:40:45.927Z,23.30
2018-06-15T09:45:55.699Z,23.30
2018-06-15T09:48:31.558Z,23.40
2018-06-15T09:53:57.797Z,23.40
2018-06-15T09:56:31.415Z,23.40
2018-06-15T09:59:18.769Z,23.40
2018-06-15T10:01:54.590Z,23.50
2018-06-15T10:04:38.946Z,23.60
2018-06-15T10:12:47.781Z,23.70
2018-06-15T10:15:59.518Z,23.70
2018-06-15T10:18:39.786Z,23.80
2018-06-15T10:21:15.525Z,23.80
2018-06-15T10:34:19.221Z,23.90
2018-06-15T10:39:25.528Z,24.00
2018-06-15T10:41:59.814Z,24.10
2018-06-15T10:47:14.909Z,24.20
2018-06-15T10:49:44.520Z,24.20
2018-06-15T10:55:00.224Z,24.30
2018-06-15T11:00:13.474Z,24.30
2018-06-15T11:05:36.041Z,24.40
2018-06-15T11:13:21.259Z,24.50
2018-06-15T11:24:00.348Z,24.60
2018-06-15T11:26:43.174Z,24.60
2018-06-15T11:32:01.332Z,24.70
2018-06-15T11:34:42.315Z,24.70
2018-06-15T11:37:14.580Z,24.70
2018-06-15T11:52:45.927Z,24.80
2018-06-15T12:00:45.582Z,24.90
2018-06-15T12:08:42.777Z,25.10
2018-06-15T12:11:23.539Z,25.10
2018-06-15T12:16:34.136Z,25.20
2018-06-15T12:37:27.938Z,25.70
2018-06-15T12:40:01.349Z,25.70
2018-06-15T12:45:09.484Z,25.80
2018-06-15T12:50:23.951Z,25.70
2018-06-15T12:53:01.961Z,25.80
2018-06-15T13:11:13.367Z,25.90
2018-06-15T13:14:01.981Z,25.90
2018-06-15T13:16:37.674Z,25.90
2018-06-15T13:19:12.815Z,26.00
2018-06-15T13:21:57.281Z,26.00
2018-06-15T13:27:11.650Z,26.10
2018-06-15T13:29:44.944Z,26.00
2018-06-15T13:32:19.160Z,26.10
2018-06-15T13:37:31.181Z,26.10
2018-06-15T13:42:46.061Z,26.10
2018-06-15T13:45:21.731Z,26.20
2018-06-15T13:48:08.016Z,26.20
2018-06-15T13:50:48.792Z,26.20
2018-06-15T13:55:58.867Z,26.20
2018-06-15T14:01:26.761Z,26.30
2018-06-15T14:14:36.382Z,26.30
2018-06-15T14:30:22.058Z,26.40
2018-06-15T14:35:45.064Z,26.30
2018-06-15T14:38:25.306Z,26.30
2018-06-15T14:59:19.939Z,26.20
2018-06-15T15:04:26.337Z,26.10
2018-06-15T15:07:00.245Z,26.10
2018-06-15T15:15:19.324Z,26.10
2018-06-15T15:17:51.421Z,26.10
2018-06-15T15:20:30.958Z,26.10
2018-06-15T15:28:29.694Z,26.10
2018-06-15T15:36:18.704Z,26.10
2018-06-15T15:44:16.808Z,26.00
2018-06-15T15:46:59.731Z,26.00
2018-06-15T15:52:19.546Z,26.00
2018-06-15T15:54:51.819Z,26.00
2018-06-15T15:57:31.770Z,26.00
2018-06-15T16:00:16.839Z,26.00
2018-06-15T16:02:57.825Z,26.00
2018-06-15T16:08:03.386Z,26.00
2018-06-15T16:16:34.232Z,25.90
2018-06-15T16:19:18.180Z,25.90
2018-06-15T16:21:51.187Z,25.90
2018-06-15T16:37:18.403Z,25.90
2018-06-15T16:42:34.982Z,25.80
2018-06-15T16:53:05.256Z,25.70
2018-06-15T17:03:46.225Z,25.70
2018-06-15T17:06:21.644Z,25.70
2018-06-15T17:20:09.157Z,25.60
2018-06-15T17:22:46.966Z,25.60
2018-06-15T17:27:58.980Z,25.60
2018-06-15T17:33:11.298Z,25.50
2018-06-15T17:35:45.838Z,25.50
2018-06-15T17:38:32.443Z,25.50
2018-06-15T17:41:19.268Z,25.40
2018-06-15T17:43:56.268Z,25.50
2018-06-15T17:46:28.919Z,25.50
2018-06-15T17:51:50.977Z,25.40
2018-06-15T17:54:32.770Z,25.40
2018-06-15T17:57:04.843Z,25.40
2018-06-15T18:04:51.688Z,25.30
2018-06-15T18:07:26.112Z,25.30
2018-06-15T18:12:46.741Z,25.20
2018-06-15T18:21:13.320Z,25.10
2018-06-15T18:26:23.508Z,25.10
2018-06-15T18:31:36.324Z,25.00
2018-06-15T18:52:13.780Z,24.70
2018-06-15T18:54:49.020Z,24.60
2018-06-15T18:59:54.480Z,24.60
2018-06-15T19:02:27.365Z,24.50
2018-06-15T19:05:04.553Z,24.50
2018-06-15T19:10:11.762Z,24.40
2018-06-15T19:12:48.541Z,24.40
2018-06-15T19:21:11.635Z,24.30
2018-06-15T19:23:42.377Z,24.30
2018-06-15T19:26:13.116Z,24.20
2018-06-15T19:28:46.134Z,24.20
2018-06-15T19:31:17.044Z,24.10
2018-06-15T19:33:50.951Z,24.00
2018-06-15T19:36:35.929Z,24.00
2018-06-15T19:39:09.530Z,23.90
2018-06-15T21:44:17.252Z,22.30
2018-06-15T21:46:54.440Z,22.30
2018-06-15T21:59:37.241Z,22.10
2018-06-15T22:07:37.561Z,22.10
2018-06-15T22:10:17.871Z,22.10
2018-06-15T22:23:32.300Z,22.00
2018-06-15T22:28:54.258Z,22.00
2018-06-15T22:31:26.428Z,22.00
2018-06-15T22:36:47.593Z,21.90
2018-06-15T22:39:23.721Z,21.90
2018-06-15T22:47:09.550Z,21.80
2018-06-15T22:49:52.606Z,21.80
2018-06-15T22:52:29.045Z,21.70
2018-06-15T22:55:17.302Z,21.80
2018-06-15T23:00:30.449Z,21.70
2018-06-15T23:03:09.059Z,21.70
2018-06-15T23:05:43.800Z,21.60
2018-06-15T23:10:56.123Z,21.60
2018-06-15T23:18:44.001Z,21.50
2018-06-15T23:23:59.696Z,21.50
2018-06-15T23:31:45.729Z,21.40
2018-06-15T23:39:40.374Z,21.40
2018-06-15T23:42:19.663Z,21.40
2018-06-15T23:44:53.715Z,21.40
2018-06-15T23:50:16.184Z,21.30
2018-06-15T23:52:50.094Z,21.30
2018-06-15T23:55:22.684Z,21.30
2018-06-15T23:57:53.933Z,21.20
